LiveATC.Net - Listen to live air traffic control over the Internet! Contact for advertising information

ICAO: KSYR  IATA: SYR   Airport: Syracuse Hancock International Airport
City: Syracuse   State/Province: New York
Country: United States   Continent: North America
KSYR METAR Weather: KSYR 070154Z 24003KT 10SM OVC027 13/12 A3003 RMK AO2 SLP167 T01330122
KSYR Flight Activity (FlightAware)
KSYR Airport Info   (AirNav) (iFlightPlanner)
KSYR VFR Sectional Chart   (iFlightPlanner) 
KSYR IFR Low Chart   (iFlightPlanner) 
KSYR Tower/Approach
Feed Status: UP   Listeners: 3
Listen right in your browser - requires Flash (in browser, requires Flash)
Click here to listen with your own player (launches your MP3 player)
KSYR Tower/Approach Audio Archives
Syracuse Approach126.125
Syracuse Approach134.275
Syracuse Tower120.300


Unauthorized use prohibited. See Terms of Service

Find LiveATC Audio Streams

Airport/ARTCC Code

(e.g., 124.400, 128.75)
Site-wide search

Browse LiveATC Feeds
LiveATC Coverage Map
Top 50 LiveATC Feeds
Bad Weather Areas

Offer a LiveATC Feed
Press Inquiries

LiveATC on iPhone
LiveATC on Android

LiveATC Mobile
(Mobile browser)

ATC Audio Archives
Interesting Recordings

LiveATC Forums

Home Page
Make a Donation
LiveATC Bookstore

Terms of Use
Privacy Policy

ATC/Radar Sites
U.S. ARTCC Freqs
Canadian Air Freqs


FAA Airport Status
Nat'l Airspace Status
Arrival Demand Charts

Server Software By:

Please make a donation to help us keep growing!